San Francisco (SFO/KSFO)

Information

Location
San Francisco, CA
Local Time
17:59 / 5:59 pm
GMT Time
01:59 / 1:59 am
Gates
No FAA reported delays
METAR KSFO 250056Z 29008KT 10SM SCT150 BKN200 17/13 A2999 RMK AO2 SLP157 T01720128
TAF KSFO 242327Z 2500/2606 30008KT P6SM BKN120 BKN200 FM250100 29011KT P6SM BKN120 FM250500 30007KT P6SM BKN120 FM251000 VRB04KT P6SM FEW010 BKN120 FM252100 15008KT P6SM BKN150 FM260300 16005KT P6SM OVC150